Time;durP1;ratioP1;P1;durP2;ratioP2;P2;SDS_P1;SDS_P2;PMS_P1;PMS_P2;Temp;Humidity;BMP_temperature;BMP_pressure;BME280_temperature;BME280_humidity;BME280_pressure;Samples;Min_cycle;Max_cycle;Signal;HPM_P1;HPM_P2
2024/02/15 00:00:43;;;;;;;14.15;9.05;;;;;;;11.37;48.67;99095.09;5018559;28;20471;-77
2024/02/15 00:03:08;;;;;;;12.50;8.63;;;;;;;11.40;48.63;99096.63;5035283;28;20036;-75
2024/02/15 00:05:36;;;;;;;11.95;8.55;;;;;;;11.40;48.81;99096.63;5035198;28;20065;-77
2024/02/15 00:08:02;;;;;;;11.18;7.00;;;;;;;11.33;48.76;99091.03;5035358;28;20036;-75
2024/02/15 00:10:28;;;;;;;12.27;7.63;;;;;;;11.32;48.51;99091.13;5018294;28;20492;-76
2024/02/15 00:12:53;;;;;;;11.30;7.28;;;;;;;11.37;48.72;99104.72;5052659;28;20033;-76
2024/02/15 00:15:19;;;;;;;13.23;6.78;;;;;;;11.36;48.80;99100.44;5052344;28;20077;-74
2024/02/15 00:17:46;;;;;;;10.57;6.15;;;;;;;11.36;48.60;99110.88;5051346;28;20472;-75
2024/02/15 00:20:16;;;;;;;10.35;5.93;;;;;;;11.35;48.68;99112.69;5034687;28;20025;-74
2024/02/15 00:22:41;;;;;;;9.80;5.55;;;;;;;11.34;48.84;99110.19;5034364;28;20090;-75
2024/02/15 00:25:08;;;;;;;8.93;5.70;;;;;;;11.35;48.84;99111.81;5050650;28;20130;-77
2024/02/15 00:27:37;;;;;;;7.45;4.90;;;;;;;11.29;48.75;99107.03;5034718;28;20118;-76
2024/02/15 00:30:06;;;;;;;6.80;4.80;;;;;;;11.31;48.67;99108.63;5034617;28;20047;-74
2024/02/15 00:32:32;;;;;;;8.90;4.43;;;;;;;11.33;48.44;99111.13;5018567;28;20044;-75
2024/02/15 00:34:57;;;;;;;8.05;4.40;;;;;;;11.29;48.87;99107.03;5034066;28;20029;-74
2024/02/15 00:37:23;;;;;;;6.25;4.13;;;;;;;11.25;48.61;99103.84;5034124;28;20048;-75
2024/02/15 00:39:48;;;;;;;6.00;4.22;;;;;;;11.31;48.81;99105.19;5017580;28;20036;-76
2024/02/15 00:42:15;;;;;;;7.35;4.75;;;;;;;11.31;48.67;99107.78;5017435;28;20040;-76
2024/02/15 00:44:41;;;;;;;11.23;5.20;;;;;;;11.30;48.63;99112.16;5034017;28;20098;-74
2024/02/15 00:47:07;;;;;;;9.82;6.28;;;;;;;11.29;48.61;99113.13;5033974;28;20099;-76
2024/02/15 00:49:33;;;;;;;11.30;6.70;;;;;;;11.29;48.64;99112.28;5017265;28;20482;-76
2024/02/15 00:51:59;;;;;;;9.95;6.50;;;;;;;11.24;48.81;99102.16;5033540;28;20206;-75
2024/02/15 00:54:24;;;;;;;11.43;6.80;;;;;;;11.28;48.65;99108.00;5033807;28;20429;-76
2024/02/15 00:56:51;;;;;;;11.02;6.85;;;;;;;11.28;48.71;99102.78;5033794;28;20036;-76
2024/02/15 00:59:16;;;;;;;11.57;7.07;;;;;;;11.25;48.70;99100.41;5033759;28;20025;-76
2024/02/15 01:01:42;;;;;;;11.15;7.03;;;;;;;11.22;48.58;99094.44;5033759;28;20033;-75
2024/02/15 01:04:07;;;;;;;10.20;6.30;;;;;;;11.21;48.83;99095.38;5050012;28;20029;-75
2024/02/15 01:06:33;;;;;;;9.93;6.40;;;;;;;11.17;48.60;99087.88;5017045;28;20036;-75
2024/02/15 01:09:01;;;;;;;9.63;6.20;;;;;;;11.24;48.73;99099.53;5050129;28;20055;-75
2024/02/15 01:11:28;;;;;;;9.50;5.80;;;;;;;11.21;48.77;99099.75;5033976;28;20029;-76
2024/02/15 01:13:54;;;;;;;9.93;5.50;;;;;;;11.23;48.70;99106.56;5050024;28;20100;-76
2024/02/15 01:16:21;;;;;;;8.98;5.57;;;;;;;11.22;49.09;99106.66;5033714;28;20511;-76
2024/02/15 01:18:47;;;;;;;9.23;5.13;;;;;;;11.17;48.99;99096.56;5017224;28;20037;-76
2024/02/15 01:21:16;;;;;;;9.20;5.15;;;;;;;11.16;48.98;99094.03;5033761;28;20021;-76
2024/02/15 01:23:42;;;;;;;7.60;4.70;;;;;;;11.17;49.08;99090.50;5017884;28;20025;-77
2024/02/15 01:26:08;;;;;;;9.45;4.30;;;;;;;11.15;48.84;99095.00;5034015;28;20029;-76
2024/02/15 01:28:39;;;;;;;6.90;4.38;;;;;;;11.17;48.99;99096.56;5033663;28;20033;-75
2024/02/15 01:31:07;;;;;;;6.47;3.92;;;;;;;11.17;48.98;99093.94;5017987;28;20043;-76
2024/02/15 01:33:33;;;;;;;8.40;4.50;;;;;;;11.18;48.80;99094.75;5033834;28;20021;-76
2024/02/15 01:35:58;;;;;;;6.60;3.92;;;;;;;11.17;48.68;99093.94;5049828;28;20538;-77
2024/02/15 01:38:27;;;;;;;7.97;4.32;;;;;;;11.17;48.51;99096.56;5051433;28;20033;-76
2024/02/15 01:40:52;;;;;;;6.15;3.80;;;;;;;11.17;48.60;99101.78;5050976;28;20029;-76
2024/02/15 01:43:18;;;;;;;7.15;4.68;;;;;;;11.17;48.42;99095.72;5050093;28;20036;-75
2024/02/15 01:45:43;;;;;;;10.65;6.28;;;;;;;11.15;48.58;99093.22;5049515;28;20041;-76
2024/02/15 01:48:10;;;;;;;13.55;8.25;;;;;;;11.16;48.44;99094.88;5033292;28;20033;-76
2024/02/15 01:50:36;;;;;;;15.20;9.57;;;;;;;11.15;48.41;99097.63;5033664;28;20037;-76
2024/02/15 01:53:02;;;;;;;19.00;11.45;;;;;;;11.10;48.53;99090.13;5033296;28;20378;-74
2024/02/15 01:55:27;;;;;;;19.88;12.02;;;;;;;11.13;48.52;99094.28;5016994;28;20510;-76
2024/02/15 01:57:53;;;;;;;19.95;11.98;;;;;;;11.14;48.43;99090.72;5017127;28;20114;-75
2024/02/15 02:00:19;;;;;;;20.70;13.00;;;;;;;11.15;48.65;99095.00;5053596;28;20032;-75
2024/02/15 02:02:45;;;;;;;21.80;12.38;;;;;;;11.13;48.42;99091.66;5020592;28;20029;-75
2024/02/15 02:05:10;;;;;;;19.85;12.20;;;;;;;11.13;48.40;99092.50;5037366;28;20080;-76
2024/02/15 02:07:37;;;;;;;19.38;11.50;;;;;;;11.12;48.28;99096.06;5053633;28;20040;-76
2024/02/15 02:10:02;;;;;;;18.65;11.27;;;;;;;11.07;48.29;99092.09;5037251;28;20032;-76
2024/02/15 02:12:28;;;;;;;18.85;10.95;;;;;;;11.11;48.18;99097.00;5036719;28;20037;-76
2024/02/15 02:14:54;;;;;;;19.08;10.75;;;;;;;11.06;48.47;99087.84;5020521;28;20565;-76
2024/02/15 02:17:20;;;;;;;15.85;9.85;;;;;;;11.09;48.38;99098.06;5053617;28;20127;-74
2024/02/15 02:19:45;;;;;;;14.70;9.35;;;;;;;11.06;48.46;99095.69;5036909;28;20045;-75
2024/02/15 02:22:11;;;;;;;15.45;8.93;;;;;;;11.05;47.96;99105.28;5053475;28;20113;-75
2024/02/15 02:24:46;;;;;;;12.27;7.85;;;;;;;10.97;48.07;99102.38;5036933;28;20033;-75
2024/02/15 02:27:13;;;;;;;11.98;7.90;;;;;;;10.98;48.11;99107.50;5021673;28;20037;-74
2024/02/15 02:29:45;;;;;;;12.57;7.85;;;;;;;10.96;47.88;99106.78;5037008;28;20188;-75
2024/02/15 02:32:11;;;;;;;11.57;7.10;;;;;;;10.92;48.03;99107.94;5053163;28;20033;-75
2024/02/15 02:34:36;;;;;;;13.50;7.18;;;;;;;10.89;47.81;99105.53;5052945;28;20032;-74
2024/02/15 02:37:05;;;;;;;9.63;6.05;;;;;;;10.79;47.90;99105.38;5036373;28;20052;-74
2024/02/15 02:39:31;;;;;;;11.00;6.38;;;;;;;10.77;47.83;99112.50;5037075;28;20111;-76
2024/02/15 02:41:57;;;;;;;10.60;6.00;;;;;;;10.73;48.06;99111.03;5036604;28;20040;-76
2024/02/15 02:44:23;;;;;;;9.18;5.75;;;;;;;10.74;47.72;99117.94;5020194;28;20044;-76
2024/02/15 02:46:48;;;;;;;7.47;5.22;;;;;;;10.66;47.73;99112.44;5036946;28;20037;-75
2024/02/15 02:49:13;;;;;;;8.18;5.55;;;;;;;10.60;47.75;99105.84;5036289;28;20033;-75
2024/02/15 02:51:39;;;;;;;7.95;4.75;;;;;;;10.61;48.07;99114.50;5019751;28;20041;-76
2024/02/15 02:54:07;;;;;;;8.45;5.32;;;;;;;10.53;48.00;99107.25;5036434;28;20033;-75
2024/02/15 02:56:33;;;;;;;7.68;5.00;;;;;;;10.49;47.93;99113.59;5036523;28;20039;-75
2024/02/15 02:58:58;;;;;;;7.72;4.70;;;;;;;10.47;48.05;99116.31;5052785;28;20036;-76
2024/02/15 03:01:27;;;;;;;8.75;4.85;;;;;;;10.46;47.83;99121.63;5036282;28;20542;-76
2024/02/15 03:03:55;;;;;;;7.55;4.88;;;;;;;10.39;48.15;99113.41;5036863;28;20029;-75
2024/02/15 03:06:21;;;;;;;6.93;4.00;;;;;;;10.38;48.26;99116.13;5036543;28;20199;-76
2024/02/15 03:08:47;;;;;;;6.18;4.45;;;;;;;10.34;48.18;99119.88;5035461;28;20037;-76
2024/02/15 03:11:13;;;;;;;7.45;3.85;;;;;;;10.23;48.09;99113.59;5034755;28;20124;-77
2024/02/15 03:13:39;;;;;;;7.55;4.15;;;;;;;10.26;48.34;99122.97;5052145;28;20029;-76
2024/02/15 03:16:08;;;;;;;6.45;4.13;;;;;;;10.24;48.44;99130.91;5035650;28;20069;-76
2024/02/15 03:18:35;;;;;;;8.27;4.65;;;;;;;10.20;48.21;99120.78;5036790;28;20113;-76
2024/02/15 03:21:00;;;;;;;6.47;4.43;;;;;;;10.17;48.25;99124.47;5052318;28;20121;-75
2024/02/15 03:23:26;;;;;;;9.20;4.90;;;;;;;10.11;48.42;99127.50;5035426;28;20480;-75
2024/02/15 03:25:53;;;;;;;8.00;4.50;;;;;;;10.10;48.36;99129.28;5018895;28;20036;-76
2024/02/15 03:28:21;;;;;;;6.95;4.57;;;;;;;10.11;48.44;99123.09;5035426;28;20099;-75
2024/02/15 03:30:52;;;;;;;7.57;4.72;;;;;;;10.08;48.38;99125.91;5052105;28;20036;-76
2024/02/15 03:33:18;;;;;;;7.15;4.30;;;;;;;10.08;48.29;99130.31;5019372;28;20041;-76
2024/02/15 03:35:43;;;;;;;7.78;4.55;;;;;;;10.03;48.46;99132.41;5035437;28;20036;-75
2024/02/15 03:38:09;;;;;;;8.40;4.57;;;;;;;10.02;48.65;99131.53;5018484;28;20437;-74
2024/02/15 03:40:34;;;;;;;6.40;4.35;;;;;;;10.01;48.66;99129.03;5051818;28;20033;-75
2024/02/15 03:43:00;;;;;;;6.47;4.00;;;;;;;10.00;48.69;99136.03;5034929;28;20052;-76
2024/02/15 03:45:25;;;;;;;7.22;4.05;;;;;;;9.96;48.62;99131.94;5051917;28;20409;-75
2024/02/15 03:47:52;;;;;;;6.22;4.15;;;;;;;10.00;48.70;99135.22;5035104;28;20032;-76
2024/02/15 03:50:18;;;;;;;6.47;4.10;;;;;;;9.96;48.65;99127.59;5034846;28;20152;-76
2024/02/15 03:52:48;;;;;;;5.38;3.63;;;;;;;9.98;48.74;99140.53;5018828;28;20060;-77
2024/02/15 03:55:13;;;;;;;6.80;4.72;;;;;;;9.93;48.85;99137.38;5018727;28;20507;-77
2024/02/15 03:57:45;;;;;;;8.38;3.40;;;;;;;9.99;48.68;99146.56;5035192;28;20032;-75
2024/02/15 04:00:14;;;;;;;5.60;3.72;;;;;;;9.95;48.80;99136.34;5036005;28;20075;-75
2024/02/15 04:02:41;;;;;;;5.72;3.17;;;;;;;9.97;48.72;99144.06;5035467;28;20020;-75
2024/02/15 04:05:09;;;;;;;4.93;3.53;;;;;;;9.92;48.76;99140.94;5051490;28;20433;-74
2024/02/15 04:07:35;;;;;;;4.75;3.47;;;;;;;9.96;48.72;99151.06;5034911;28;20036;-77
2024/02/15 04:10:00;;;;;;;4.40;3.25;;;;;;;9.96;48.88;99140.63;5034816;28;20057;-76
2024/02/15 04:12:28;;;;;;;5.95;3.38;;;;;;;9.91;48.67;99134.88;5034872;28;20036;-74
2024/02/15 04:14:54;;;;;;;5.53;3.55;;;;;;;9.93;48.64;99143.44;5034842;28;20036;-74
2024/02/15 04:17:21;;;;;;;6.10;3.42;;;;;;;9.85;48.75;99132.69;5017802;28;20413;-75
2024/02/15 04:19:47;;;;;;;5.05;3.15;;;;;;;9.91;48.66;99137.47;5051243;28;20476;-75
2024/02/15 04:22:22;;;;;;;6.93;4.28;;;;;;;9.91;48.70;99139.25;5017416;28;20024;-76
2024/02/15 04:24:47;;;;;;;6.38;3.80;;;;;;;9.84;48.76;99128.41;5027395;28;20432;-76
2024/02/15 04:27:20;;;;;;;6.10;4.43;;;;;;;9.86;48.88;99129.13;5051008;28;20029;-76
2024/02/15 04:29:50;;;;;;;8.63;5.13;;;;;;;9.85;49.00;99126.63;5051017;28;20068;-77
2024/02/15 04:32:15;;;;;;;10.63;6.68;;;;;;;9.82;48.78;99126.84;5018057;28;20033;-77
2024/02/15 04:34:41;;;;;;;12.95;7.43;;;;;;;9.81;48.80;99133.00;5033957;28;20043;-75
2024/02/15 04:37:10;;;;;;;13.50;7.97;;;;;;;9.74;48.86;99127.34;5033841;28;20037;-74
2024/02/15 04:39:36;;;;;;;14.77;8.75;;;;;;;9.73;48.71;99136.13;5034394;28;20511;-72
2024/02/15 04:42:02;;;;;;;15.52;9.43;;;;;;;9.74;48.83;99138.63;5017589;28;20037;-72
2024/02/15 04:44:28;;;;;;;12.85;4.30;;;;;;;10.08;67.87;99152.00;5035143;28;20515;-74
2024/02/15 04:46:57;;;;;;;15.02;4.63;;;;;;;10.20;67.36;99139.91;5034168;28;20025;-72
2024/02/15 04:49:23;;;;;;;9.40;4.95;;;;;;;10.29;64.83;99146.25;5034381;28;20029;-71
2024/02/15 04:51:49;;;;;;;15.48;5.43;;;;;;;10.20;62.27;99146.88;5051036;28;20029;-73
2024/02/15 04:54:14;;;;;;;8.98;5.63;;;;;;;10.09;61.02;99145.03;5013587;28;20029;-69
2024/02/15 04:56:40;;;;;;;9.88;5.07;;;;;;;10.06;60.23;99158.28;5014598;28;20033;-73
2024/02/15 04:59:11;;;;;;;9.63;5.30;;;;;;;10.00;59.52;99158.69;4997743;28;20044;-76
2024/02/15 05:01:37;;;;;;;9.80;5.25;;;;;;;9.92;59.12;99162.63;4998517;28;20171;-74
2024/02/15 05:04:07;;;;;;;9.05;5.07;;;;;;;9.87;58.44;99163.88;4997950;28;20049;-73
2024/02/15 05:06:32;;;;;;;9.70;5.43;;;;;;;9.78;57.77;99155.72;4999039;28;20030;-71
2024/02/15 05:08:59;;;;;;;10.30;4.78;;;;;;;9.76;57.21;99162.81;5014471;28;20040;-72
2024/02/15 05:11:25;;;;;;;8.05;5.20;;;;;;;9.70;57.03;99158.00;5013951;28;20037;-73
2024/02/15 05:13:50;;;;;;;8.30;4.53;;;;;;;9.68;56.56;99165.09;5014356;28;20044;-79
2024/02/15 05:16:16;;;;;;;6.50;4.55;;;;;;;9.64;56.04;99171.44;5014255;28;20041;-79
2024/02/15 05:18:42;;;;;;;9.35;4.95;;;;;;;9.60;55.75;99177.81;4998410;28;20033;-79
2024/02/15 05:21:09;;;;;;;5.95;4.53;;;;;;;9.57;55.42;99176.22;4998006;28;20033;-80
2024/02/15 05:23:39;;;;;;;8.05;4.75;;;;;;;9.50;55.17;99166.28;5014044;28;20029;-79
2024/02/15 05:26:08;;;;;;;8.07;4.68;;;;;;;9.49;54.92;99170.69;5031299;28;20037;-80
2024/02/15 05:28:34;;;;;;;;;;;;;;;9.50;54.50;99181.94;5015374;28;20042;-79
2024/02/15 05:31:12;;;;;;;16.50;9.50;;;;;;;9.45;54.26;99182.22;5030713;28;20373;-79
2024/02/15 05:33:43;;;;;;;19.98;12.13;;;;;;;9.45;54.25;99190.03;5032498;28;20152;-78
2024/02/15 05:36:15;;;;;;;19.08;12.00;;;;;;;9.40;53.79;99176.47;5018891;28;20041;-79
2024/02/15 05:38:41;;;;;;;24.05;14.10;;;;;;;9.48;53.55;99184.63;5002393;28;20033;-77
2024/02/15 05:41:10;;;;;;;24.83;14.13;;;;;;;9.57;53.14;99191.03;5001740;28;20120;-78
2024/02/15 05:43:38;;;;;;;24.35;13.70;;;;;;;9.83;52.40;99199.75;5018426;28;20969;-79
2024/02/15 05:46:04;;;;;;;22.38;13.65;;;;;;;9.94;51.96;99197.25;5018475;28;20025;-78
2024/02/15 05:48:29;;;;;;;19.85;12.07;;;;;;;10.03;51.73;99197.59;5018438;28;20044;-78
2024/02/15 05:50:57;;;;;;;20.80;11.18;;;;;;;10.13;51.24;99209.06;5034957;28;20033;-78
2024/02/15 05:53:23;;;;;;;18.25;11.10;;;;;;;10.24;50.94;99216.19;5035765;28;20065;-78
2024/02/15 05:55:49;;;;;;;17.75;10.48;;;;;;;10.48;50.19;99219.78;5034411;28;20053;-78
2024/02/15 05:58:15;;;;;;;15.23;9.48;;;;;;;10.88;49.28;99210.13;5034644;28;20036;-79
2024/02/15 06:00:41;;;;;;;15.45;8.18;;;;;;;11.34;48.65;99214.72;5001443;28;20120;-79
2024/02/15 06:03:09;;;;;;;12.98;8.32;;;;;;;11.74;47.15;99228.34;5033769;28;20453;-78
2024/02/15 06:05:35;;;;;;;12.88;7.55;;;;;;;12.15;46.64;99222.81;5001664;28;20033;-79
2024/02/15 06:08:00;;;;;;;11.00;6.80;;;;;;;12.55;45.52;99225.00;5017605;28;20469;-79
2024/02/15 06:10:26;;;;;;;8.65;5.88;;;;;;;12.99;44.80;99231.22;5001001;28;20033;-78
2024/02/15 06:12:54;;;;;;;8.55;5.75;;;;;;;13.45;43.94;99227.56;5001272;28;20041;-80
2024/02/15 06:15:20;;;;;;;9.48;5.82;;;;;;;13.94;43.19;99235.88;5017830;28;20175;-80
2024/02/15 06:17:49;;;;;;;7.95;5.40;;;;;;;14.44;42.51;99237.88;5017638;28;20479;-80
2024/02/15 06:20:17;;;;;;;8.45;5.28;;;;;;;14.98;41.75;99234.13;5034146;28;20134;-81
2024/02/15 06:22:43;;;;;;;7.50;5.10;;;;;;;15.54;40.71;99232.75;5001624;28;20409;-80
2024/02/15 06:25:09;;;;;;;6.85;4.55;;;;;;;16.16;39.67;99231.66;5017041;28;20025;-83
2024/02/15 06:27:40;;;;;;;9.30;4.78;;;;;;;16.76;38.26;99234.00;5016845;28;20095;-81
2024/02/15 06:41:11;;;;;;;9.48;3.97;;;;;;;20.01;43.02;99235.78;5033555;28;20434;-80
2024/02/15 06:43:37;;;;;;;10.57;5.60;;;;;;;20.44;38.88;99238.22;5000928;28;20057;-81
2024/02/15 06:46:03;;;;;;;13.13;5.32;;;;;;;21.09;36.66;99236.41;5033151;28;20045;-80
2024/02/15 06:48:29;;;;;;;18.13;5.82;;;;;;;21.69;35.25;99242.91;5001122;28;20097;-77
2024/02/15 06:50:55;;;;;;;10.18;4.15;;;;;;;22.23;39.86;99252.63;5000483;28;20045;-78
2024/02/15 06:53:21;;;;;;;14.77;3.35;;;;;;;22.76;38.91;99239.34;5000659;28;20029;-75
2024/02/15 06:55:50;;;;;;;10.40;3.40;;;;;;;23.33;36.90;99242.34;5016598;28;20033;-80
2024/02/15 06:58:16;;;;;;;13.63;4.50;;;;;;;23.90;34.17;99243.34;5034359;28;20053;-78
2024/02/15 07:00:42;;;;;;;18.02;5.68;;;;;;;24.62;31.45;99239.63;5016154;28;20045;-79
2024/02/15 07:03:08;;;;;;;18.17;5.57;;;;;;;25.34;29.90;99234.84;5016506;28;20041;-78
2024/02/15 07:05:34;;;;;;;12.20;5.75;;;;;;;25.85;28.13;99240.69;5032517;28;20041;-79
2024/02/15 07:08:00;;;;;;;13.32;6.10;;;;;;;26.30;26.97;99238.28;5032676;28;20033;-79
2024/02/15 07:10:30;;;;;;;13.15;6.18;;;;;;;27.06;25.57;99237.69;5033864;28;20040;-80
2024/02/15 07:12:56;;;;;;;12.23;4.70;;;;;;;27.36;27.41;99241.75;5021439;28;20548;-77
2024/02/15 07:15:21;;;;;;;9.18;4.55;;;;;;;28.17;26.14;99245.53;5016170;28;20025;-77
2024/02/15 07:17:47;;;;;;;15.38;5.03;;;;;;;28.79;25.13;99252.81;5015963;28;20037;-76
2024/02/15 07:20:17;;;;;;;11.90;4.88;;;;;;;29.35;23.91;99235.63;5032311;28;20099;-76
2024/02/15 07:22:43;;;;;;;17.60;7.32;;;;;;;30.11;23.04;99248.59;5033972;28;20376;-74
2024/02/15 07:25:10;;;;;;;18.98;8.40;;;;;;;30.80;23.07;99237.22;4999281;28;20520;-75
2024/02/15 07:27:35;;;;;;;19.13;8.40;;;;;;;31.36;21.80;99232.97;4999585;28;20025;-78
2024/02/15 07:30:02;;;;;;;17.65;8.38;;;;;;;31.99;20.26;99243.81;5032692;28;20084;-79
2024/02/15 07:32:27;;;;;;;24.10;8.65;;;;;;;32.32;19.29;99241.34;5030601;28;20107;-77
2024/02/15 07:34:53;;;;;;;23.42;9.73;;;;;;;32.28;18.74;99227.53;5015264;28;20025;-78
2024/02/15 07:37:25;;;;;;;19.17;8.55;;;;;;;32.13;18.50;99238.91;5032055;28;20041;-79
2024/02/15 07:39:51;;;;;;;19.65;9.00;;;;;;;31.67;18.96;99230.03;5016152;28;20037;-79
2024/02/15 07:42:17;;;;;;;19.50;8.85;;;;;;;31.17;19.30;99231.53;4998840;28;20075;-79
2024/02/15 07:44:42;;;;;;;19.10;10.23;;;;;;;30.79;19.26;99235.56;5033300;28;20080;-79
2024/02/15 07:47:10;;;;;;;20.52;9.82;;;;;;;30.42;19.53;99225.91;5015907;28;20090;-79
2024/02/15 07:49:36;;;;;;;15.00;8.85;;;;;;;30.23;19.68;99224.38;5032057;28;20033;-77
2024/02/15 07:52:03;;;;;;;17.08;8.27;;;;;;;30.15;19.43;99233.59;5032005;28;20430;-79
2024/02/15 07:54:30;;;;;;;15.88;8.45;;;;;;;30.04;19.91;99226.34;5033038;28;20057;-71
2024/02/15 07:56:56;;;;;;;14.60;7.57;;;;;;;29.98;19.87;99233.47;5014426;28;20117;-72
2024/02/15 07:59:21;;;;;;;13.77;7.15;;;;;;;29.86;19.94;99222.69;5015213;28;20126;-72
2024/02/15 08:01:49;;;;;;;9.63;5.05;;;;;;;29.72;23.63;99222.03;5031828;28;20041;-71
2024/02/15 08:04:15;;;;;;;9.70;4.18;;;;;;;29.53;26.29;99226.69;5032930;28;20108;-72
2024/02/15 08:06:41;;;;;;;8.85;4.50;;;;;;;29.37;27.68;99216.56;5031298;28;20421;-70
2024/02/15 08:09:07;;;;;;;10.77;4.43;;;;;;;29.28;28.00;99224.13;5015014;28;20060;-73
2024/02/15 08:11:32;;;;;;;10.25;4.18;;;;;;;29.26;28.60;99220.84;5014517;28;20035;-71
2024/02/15 08:13:59;;;;;;;17.58;4.50;;;;;;;29.18;28.62;99219.28;5031335;28;20036;-70
2024/02/15 08:16:27;;;;;;;9.30;4.75;;;;;;;29.15;28.55;99217.03;5032670;28;20025;-72
2024/02/15 08:18:54;;;;;;;11.85;5.80;;;;;;;29.14;27.59;99206.50;5015316;28;20051;-72
2024/02/15 08:21:29;;;;;;;9.43;5.20;;;;;;;29.04;27.61;99199.81;5015548;28;20049;-72
2024/02/15 08:23:55;;;;;;;10.73;6.15;;;;;;;28.99;28.02;99201.53;5031416;28;20045;-71
2024/02/15 08:26:21;;;;;;;10.52;6.18;;;;;;;28.95;28.64;99211.09;4998698;28;20037;-71
2024/02/15 08:28:47;;;;;;;10.68;6.00;;;;;;;28.81;28.83;99222.00;5031420;28;20033;-71
2024/02/15 08:31:15;;;;;;;9.85;6.13;;;;;;;28.87;28.58;99221.09;5014976;28;20048;-71
2024/02/15 08:33:44;;;;;;;10.85;5.80;;;;;;;29.02;27.50;99220.72;5015452;28;20550;-70
2024/02/15 08:36:10;;;;;;;8.90;5.32;;;;;;;29.24;26.83;99220.28;5031418;28;20025;-73
2024/02/15 08:38:37;;;;;;;12.68;5.25;;;;;;;29.34;25.35;99211.66;5031422;28;20496;-73
2024/02/15 08:41:04;;;;;;;10.13;5.03;;;;;;;29.30;26.09;99219.34;5015086;28;20025;-79
2024/02/15 08:43:32;;;;;;;7.13;4.50;;;;;;;29.47;26.74;99222.22;5032964;28;20087;-77
2024/02/15 08:45:58;;;;;;;9.35;4.57;;;;;;;29.33;27.19;99213.50;5015404;28;20060;-77
2024/02/15 08:48:24;;;;;;;6.53;4.72;;;;;;;29.51;27.25;99201.88;4997735;28;20065;-79
2024/02/15 08:50:49;;;;;;;6.53;4.57;;;;;;;29.73;26.87;99215.63;5014867;28;20026;-76
2024/02/15 08:53:15;;;;;;;8.65;4.80;;;;;;;29.79;26.69;99213.91;5014970;28;20063;-77
2024/02/15 08:55:41;;;;;;;8.60;4.60;;;;;;;29.85;26.56;99220.25;5015233;28;20132;-76
2024/02/15 08:58:09;;;;;;;6.60;4.28;;;;;;;29.70;26.58;99215.28;4998300;28;20037;-77
2024/02/15 09:00:35;;;;;;;7.90;4.75;;;;;;;29.19;27.37;99212.03;5014759;28;20477;-76
2024/02/15 09:03:01;;;;;;;7.25;4.45;;;;;;;29.32;28.20;99214.56;5014860;28;20041;-78
2024/02/15 09:05:26;;;;;;;6.32;4.30;;;;;;;28.87;28.38;99215.72;4998365;28;20029;-78
2024/02/15 09:07:52;;;;;;;6.20;4.30;;;;;;;28.75;27.31;99214.00;5015063;28;20048;-73
2024/02/15 09:10:17;;;;;;;7.75;4.10;;;;;;;28.62;26.61;99223.03;5014717;28;20045;-76
2024/02/15 09:12:44;;;;;;;6.05;3.85;;;;;;;27.86;27.67;99209.63;5030699;28;20030;-75
2024/02/15 09:15:13;;;;;;;5.88;3.85;;;;;;;27.56;29.06;99210.28;5014614;28;20034;-75
2024/02/15 09:17:39;;;;;;;6.97;3.90;;;;;;;27.34;28.31;99212.47;5030463;28;20029;-75
2024/02/15 09:20:14;;;;;;;6.97;3.58;;;;;;;28.24;26.46;99211.38;5014007;28;20045;-77
2024/02/15 09:22:46;;;;;;;10.55;3.60;;;;;;;28.41;25.63;99208.16;5031269;28;20095;-82
2024/02/15 09:25:12;;;;;;;5.30;3.28;;;;;;;28.40;25.74;99207.34;4999182;28;20048;-84
2024/02/15 09:27:39;;;;;;;4.72;3.30;;;;;;;28.40;26.49;99218.09;4998815;28;20049;-86
2024/02/15 09:30:09;;;;;;;5.57;3.30;;;;;;;28.22;26.35;99207.31;4998036;28;20740;-86
2024/02/15 09:32:34;;;;;;;5.10;3.40;;;;;;;27.40;27.88;99216.94;5015212;28;20033;-75
2024/02/15 09:35:00;;;;;;;4.93;3.33;;;;;;;29.02;25.09;99212.66;5032247;28;20022;-77
2024/02/15 09:37:27;;;;;;;4.13;2.90;;;;;;;29.71;23.72;99211.53;5014595;28;20408;-78
2024/02/15 09:39:54;;;;;;;6.32;3.60;;;;;;;29.93;24.04;99203.75;5031090;28;20025;-74
2024/02/15 09:42:20;;;;;;;6.57;3.05;;;;;;;29.64;23.76;99208.13;5014212;28;20037;-74
2024/02/15 09:44:46;;;;;;;4.68;2.78;;;;;;;29.69;22.81;99206.38;4996866;28;20053;-73
2024/02/15 09:47:12;;;;;;;5.55;2.65;;;;;;;29.71;22.52;99204.25;5014016;28;20048;-74
2024/02/15 09:49:39;;;;;;;3.30;2.45;;;;;;;29.77;22.31;99197.94;4998004;28;20029;-75
2024/02/15 09:52:15;;;;;;;4.18;2.45;;;;;;;29.89;22.08;99194.50;5014507;28;20042;-76
2024/02/15 09:54:43;;;;;;;3.90;2.50;;;;;;;29.87;21.97;99186.69;4999113;28;20033;-74
2024/02/15 09:57:09;;;;;;;4.72;2.40;;;;;;;29.95;21.91;99186.31;5014231;28;20049;-74
2024/02/15 09:59:36;;;;;;;3.35;2.15;;;;;;;29.92;21.46;99169.81;5030060;28;20042;-75
2024/02/15 10:02:01;;;;;;;2.90;2.00;;;;;;;29.95;21.25;99185.47;5014254;28;20029;-74
2024/02/15 10:04:27;;;;;;;5.03;2.20;;;;;;;29.85;21.06;99169.13;4998241;28;20283;-74
2024/02/15 10:06:53;;;;;;;4.28;1.95;;;;;;;29.81;21.24;99178.69;5014029;28;20026;-77
2024/02/15 10:09:28;;;;;;;4.22;1.90;;;;;;;29.82;21.58;99164.19;4997545;28;20045;-74
2024/02/15 10:11:57;;;;;;;2.65;1.70;;;;;;;29.84;21.44;99172.84;5013771;28;20080;-75
2024/02/15 10:14:24;;;;;;;2.60;1.70;;;;;;;29.84;21.14;99162.09;5013618;28;20481;-76
2024/02/15 10:16:49;;;;;;;2.67;1.70;;;;;;;29.42;21.65;99157.53;5014203;28;20516;-74
2024/02/15 10:19:15;;;;;;;2.72;1.77;;;;;;;29.41;21.41;99151.34;4998323;28;20311;-74
2024/02/15 10:21:41;;;;;;;3.47;1.60;;;;;;;29.33;21.46;99150.84;5001351;28;20408;-74
2024/02/15 10:24:07;;;;;;;2.42;1.70;;;;;;;29.32;21.48;99163.50;5017501;28;20045;-76
2024/02/15 10:26:34;;;;;;;2.30;1.50;;;;;;;29.26;21.78;99153.66;5017552;28;20480;-75
2024/02/15 10:29:10;;;;;;;4.38;1.67;;;;;;;29.02;21.85;99166.16;5001482;28;20182;-76
2024/02/15 10:31:41;;;;;;;2.70;1.40;;;;;;;28.90;21.67;99157.22;5001251;28;20507;-74
2024/02/15 10:34:07;;;;;;;2.55;1.40;;;;;;;28.94;21.85;99156.53;5017358;28;20504;-76
2024/02/15 10:36:36;;;;;;;2.60;1.67;;;;;;;28.96;21.35;99150.94;5000901;28;20124;-74
2024/02/15 10:39:18;;;;;;;3.22;1.40;;;;;;;28.79;21.76;99158.78;5001826;28;20037;-76
2024/02/15 10:41:48;;;;;;;2.08;1.40;;;;;;;28.66;21.66;99157.09;5018593;28;20068;-77
2024/02/15 10:44:18;;;;;;;5.28;1.60;;;;;;;28.64;22.12;99149.25;5001685;28;20505;-76
2024/02/15 10:46:51;;;;;;;3.25;2.30;;;;;;;28.53;21.97;99141.94;5017546;28;20435;-76
2024/02/15 10:49:23;;;;;;;3.03;2.20;;;;;;;28.46;22.21;99141.19;5017013;28;20507;-76
2024/02/15 10:51:55;;;;;;;3.65;2.70;;;;;;;28.41;22.36;99146.41;5017249;28;20022;-74
2024/02/15 10:54:28;;;;;;;4.22;2.83;;;;;;;28.33;22.31;99147.50;5000763;28;20025;-74
2024/02/15 10:56:56;;;;;;;4.57;3.10;;;;;;;28.28;22.00;99134.75;5035175;28;20503;-76
2024/02/15 10:59:22;;;;;;;3.53;2.47;;;;;;;28.20;22.08;99137.75;5017463;28;20053;-75
2024/02/15 11:01:50;;;;;;;4.50;2.33;;;;;;;27.89;22.05;99134.06;5017320;28;20404;-75
2024/02/15 11:04:16;;;;;;;4.97;2.92;;;;;;;27.63;21.99;99137.81;5000661;28;20029;-75
2024/02/15 11:06:43;;;;;;;3.90;3.00;;;;;;;27.52;22.17;99139.34;5000415;28;20037;-75
2024/02/15 11:09:11;;;;;;;5.43;2.90;;;;;;;27.48;22.22;99135.44;5016891;28;20105;-75
2024/02/15 11:11:37;;;;;;;4.10;3.20;;;;;;;27.33;22.57;99133.09;5017094;28;20033;-76
2024/02/15 11:14:28;;;;;;;6.90;2.90;;;;;;;26.88;22.70;99141.13;5016565;28;20045;-74
2024/02/15 11:16:56;;;;;;;5.22;2.78;;;;;;;26.80;22.54;99136.84;5032679;28;20021;-75
2024/02/15 11:19:36;;;;;;;3.35;2.20;;;;;;;26.59;22.52;99135.25;5033207;28;20106;-72
2024/02/15 11:22:09;;;;;;;3.42;2.22;;;;;;;26.36;22.57;99119.66;5034837;28;20480;-73
2024/02/15 11:24:38;;;;;;;3.45;2.30;;;;;;;26.18;22.94;99121.16;5032812;28;20040;-74
2024/02/15 11:27:05;;;;;;;4.05;2.33;;;;;;;25.86;22.79;99119.34;5016967;28;20037;-75
2024/02/15 11:29:51;;;;;;;3.17;2.20;;;;;;;25.45;23.41;99134.56;5033125;28;20037;-72
2024/02/15 11:32:44;;;;;;;2.92;2.28;;;;;;;25.29;23.70;99109.06;5031719;28;20017;-73
2024/02/15 11:35:16;;;;;;;3.53;2.70;;;;;;;24.91;24.16;99120.25;5032432;28;20040;-75
2024/02/15 11:37:54;;;;;;;6.00;3.47;;;;;;;24.70;24.20;99118.50;5032762;28;20384;-75
2024/02/15 11:40:29;;;;;;;;;;;;;;;24.56;24.58;99117.63;5016789;28;20124;-74
2024/02/15 11:42:59;;;;;;;6.05;3.33;;;;;;;24.32;24.83;99116.25;5032661;28;19913;-74